Terminal Aerodrome Forecast
Issued by NWS

Home | Current Version | Previous Version | Text Only | Print | Product List | Glossary On
Versions: 1 2 3 4 5 6 7 8 9 10 11 12 13
000
FTUS45 KREV 241736
TAFRNO
TAF
KRNO 241736Z 2418/2518 22010KT P6SM BKN060 OVC080 WS020/23040KT
     FM241900 22015G28KT P6SM VCSH BKN060 OVC080 WS020/23045KT
     FM242200 22018G32KT P6SM -SHRA BKN050 OVC080 WS020/25045KT
     FM250300 26011G18KT P6SM VCSH SCT050 BKN100
     FM250700 30011KT P6SM SCT080 BKN140=

USA.gov is the U.S. government's official web portal to all federal, state and local government web resources and services.